Terminal Aerodrome Forecast
Issued by NWS

Home | Current Version | Previous Version | Text Only | Print | Product List | Glossary On
Versions: 1 2 3 4 5 6 7 8 9 10 11 12 13 14 15 16 17 18 19 20
000
FTUS43 KDLH 252342
TAFBRD
TAF
KBRD 252342Z 2600/2624 21006KT P6SM SCT025
     FM260200 18004KT P6SM VCTS BKN035CB BKN120
     FM260600 23004KT P6SM BKN060
     FM260900 29004KT 4SM BR BKN060
     FM261300 34005KT P6SM SCT120
     FM261800 32010G19KT P6SM SCT050=

USA.gov is the U.S. government's official web portal to all federal, state and local government web resources and services.